This is the latest recevied weather packets stored in our database for station/object CT1ETE-13. If no packets are shown the sender has not sent any weather packets the latest 10 day(s).
| Time | Temp. | Humidity | Pressure | Rain* | Wind** | Luminosity | Snow |
|---|---|---|---|---|---|---|---|
| 1787734287 | 15.56° C | 73% | 1008 hPa | 3.3 mm | - | 1478 W/m² | - |
| 1787733386 | 15.56° C | 75% | 1009.5 hPa | 4.06 mm | - | 1480 W/m² | - |
| 1787732485 | 15.56° C | 76% | 1010.2 hPa | 4.32 mm | - | 1480 W/m² | - |
| 1787731585 | 15.56° C | 78% | 1011.3 hPa | 5.33 mm | - | 1478 W/m² | - |
| 1787730745 | 16.11° C | 80% | 1011.9 hPa | 5.59 mm | - | 1478 W/m² | - |
| 1787729785 | 16.11° C | 81% | 1012 hPa | 4.83 mm | - | 1477 W/m² | - |
| 1787728881 | 16.67° C | 82% | 1011.5 hPa | 3.56 mm | - | 1477 W/m² | - |
| 1787727981 | 16.67° C | 84% | 1011.3 hPa | 1.27 mm | - | 1475 W/m² | - |
| 1787727082 | 16.67° C | 85% | 1011.2 hPa | 0.51 mm | - | 1475 W/m² | - |
| 1787726181 | 16.67° C | 84% | 1011 hPa | 0 mm | - | 1475 W/m² | - |
| 1787725281 | 16.67° C | 84% | 1010.7 hPa | 0 mm | - | 1475 W/m² | - |
| 1787724378 | 17.22° C | 84% | 1010.3 hPa | 0 mm | - | 1473 W/m² | - |
| 1787723473 | 17.22° C | 83% | 1010.3 hPa | 0 mm | - | 1471 W/m² | - |
| 1787722573 | 16.67° C | 83% | 1009.9 hPa | 0 mm | - | 1473 W/m² | - |
| 1787721673 | 16.67° C | 84% | 1009.8 hPa | 0 mm | - | 1473 W/m² | - |
| 1787720772 | 16.67° C | 84% | 1009.7 hPa | 0 mm | - | 1471 W/m² | - |
| 1787719873 | 16.67° C | 83% | 1009.9 hPa | 0 mm | - | 1471 W/m² | - |
| 1787719033 | 16.67° C | 83% | 1009.8 hPa | 0 mm | - | 1471 W/m² | - |
| 1787718130 | 16.67° C | 83% | 1010.1 hPa | 0 mm | - | 1471 W/m² | - |
| 1787717169 | 16.67° C | 84% | 1010.3 hPa | 0 mm | - | 1471 W/m² | - |
| 1787716267 | 16.67° C | 84% | 1010.3 hPa | 0 mm | - | 1473 W/m² | - |
| 1787715367 | 16.67° C | 84% | 1010.5 hPa | 0 mm | - | 1473 W/m² | - |
| 1787714466 | 16.67° C | 84% | 1010.7 hPa | 0 mm | - | 1473 W/m² | - |
| 1787713567 | 17.22° C | 84% | 1010.9 hPa | 0 mm | - | 1471 W/m² | - |
| 1787712727 | 17.22° C | 82% | 1011.2 hPa | 0 mm | - | 1470 W/m² | - |
* Rain latest hour (hover to see other rain measurements)
** Current wind speed in m/s (hover to see current wind gust speed)